createdAt,value
2019-03-01T00:01:36.621Z,10.00
2019-03-01T00:04:21.615Z,10.00
2019-03-01T00:07:13.010Z,10.10
2019-03-01T00:10:05.560Z,10.10
2019-03-01T00:13:13.730Z,10.00
2019-03-01T00:16:18.168Z,10.00
2019-03-01T00:19:18.074Z,9.90
2019-03-01T00:21:54.345Z,9.90
2019-03-01T00:24:58.808Z,9.80
2019-03-01T00:28:07.582Z,9.80
2019-03-01T00:31:35.500Z,9.80
2019-03-01T00:34:38.171Z,9.80
2019-03-01T00:37:41.069Z,9.80
2019-03-01T00:40:32.367Z,9.80
2019-03-01T00:43:49.394Z,9.70
2019-03-01T00:46:18.275Z,9.70
2019-03-01T00:48:47.128Z,9.70
2019-03-01T00:51:16.049Z,9.70
2019-03-01T00:53:44.917Z,9.70
2019-03-01T00:56:13.835Z,9.70
2019-03-01T00:58:42.684Z,9.70
2019-03-01T01:01:11.620Z,9.60
2019-03-01T01:03:40.628Z,9.60
2019-03-01T01:06:09.626Z,9.50
2019-03-01T01:08:38.580Z,9.50
2019-03-01T01:11:07.503Z,9.50
2019-03-01T01:13:36.430Z,9.50
2019-03-01T01:16:05.443Z,9.50
2019-03-01T01:18:34.365Z,9.50
2019-03-01T01:21:03.411Z,9.50
2019-03-01T01:23:32.415Z,9.40
2019-03-01T01:26:01.346Z,9.40
2019-03-01T01:28:30.168Z,9.50
2019-03-01T01:30:59.180Z,9.40
2019-03-01T01:33:28.051Z,9.40
2019-03-01T01:35:57.002Z,9.30
2019-03-01T01:38:25.896Z,9.30
2019-03-01T01:41:12.269Z,9.10
2019-03-01T01:43:40.734Z,9.10
2019-03-01T01:46:09.734Z,9.00
2019-03-01T01:48:38.707Z,9.00
2019-03-01T01:51:07.629Z,9.00
2019-03-01T01:53:36.633Z,9.00
2019-03-01T01:56:05.644Z,9.00
2019-03-01T01:58:34.600Z,8.90
2019-03-01T02:01:03.616Z,8.80
2019-03-01T02:03:32.544Z,8.80
2019-03-01T02:06:01.490Z,8.70
2019-03-01T02:08:30.498Z,8.70
2019-03-01T02:10:59.498Z,8.70
2019-03-01T02:13:28.523Z,8.70
2019-03-01T02:16:12.682Z,8.70
2019-03-01T02:18:41.538Z,8.70
2019-03-01T02:21:10.550Z,8.70
2019-03-01T02:23:40.169Z,8.60
2019-03-01T02:26:09.270Z,8.60
2019-03-01T02:28:39.272Z,8.50
2019-03-01T02:31:08.486Z,8.50
2019-03-01T02:33:37.425Z,8.50
2019-03-01T02:36:06.407Z,8.50
2019-03-01T02:38:35.384Z,8.40
2019-03-01T02:41:04.477Z,8.40
2019-03-01T02:43:33.330Z,8.30
2019-03-01T02:46:02.251Z,8.30
2019-03-01T02:48:31.201Z,8.30
2019-03-01T02:51:00.227Z,8.30
2019-03-01T02:53:29.138Z,8.30
2019-03-01T02:55:58.163Z,8.30
2019-03-01T02:58:27.101Z,8.30
2019-03-01T03:00:56.110Z,8.20
2019-03-01T03:03:24.982Z,8.20
2019-03-01T03:06:11.191Z,8.20
2019-03-01T03:08:40.239Z,8.20
2019-03-01T03:11:09.182Z,8.30
2019-03-01T03:13:38.185Z,8.20
2019-03-01T03:16:07.130Z,8.20
2019-03-01T03:18:35.973Z,8.20
2019-03-01T03:21:04.985Z,8.20
2019-03-01T03:23:33.866Z,8.10
2019-03-01T03:26:02.813Z,8.20
2019-03-01T03:28:31.722Z,8.20
2019-03-01T03:31:00.682Z,8.20
2019-03-01T03:33:29.615Z,8.20
2019-03-01T03:35:58.459Z,8.20
2019-03-01T03:38:28.041Z,8.20
2019-03-01T03:40:56.994Z,8.20
2019-03-01T03:43:25.854Z,8.20
2019-03-01T03:45:54.791Z,8.20
2019-03-01T03:48:23.713Z,8.20
2019-03-01T03:50:52.666Z,8.20
2019-03-01T03:53:21.726Z,8.20
2019-03-01T03:55:50.726Z,8.20
2019-03-01T03:58:19.786Z,8.20
2019-03-01T04:00:48.806Z,8.20
2019-03-01T04:03:17.757Z,8.20
2019-03-01T04:05:46.738Z,8.20
2019-03-01T04:08:15.809Z,8.20
2019-03-01T04:10:44.641Z,8.20
2019-03-01T04:13:13.557Z,8.20
2019-03-01T04:15:42.561Z,8.30
2019-03-01T04:18:11.633Z,8.20
2019-03-01T04:20:40.464Z,8.30
2019-03-01T04:23:09.326Z,8.20
2019-03-01T04:25:38.259Z,8.30
2019-03-01T04:28:07.420Z,8.20
2019-03-01T04:30:36.372Z,8.30
2019-03-01T04:33:05.410Z,8.30
2019-03-01T04:35:34.325Z,8.30
2019-03-01T04:38:03.277Z,8.30
2019-03-01T04:40:32.218Z,8.30
2019-03-01T04:43:01.065Z,8.30
2019-03-01T04:45:29.917Z,8.30
2019-03-01T04:47:58.869Z,8.30
2019-03-01T04:50:27.853Z,8.20
2019-03-01T04:52:56.738Z,8.20
2019-03-01T04:55:26.123Z,8.20
2019-03-01T04:57:55.201Z,8.20
2019-03-01T05:00:24.460Z,8.20
2019-03-01T05:02:53.455Z,8.20
2019-03-01T05:05:22.438Z,8.20
2019-03-01T05:07:51.464Z,8.20
2019-03-01T05:10:20.441Z,8.20
2019-03-01T05:12:49.433Z,8.20
2019-03-01T05:15:20.078Z,8.20
2019-03-01T05:17:48.923Z,8.20
2019-03-01T05:20:17.944Z,8.20
2019-03-01T05:22:46.816Z,8.20
2019-03-01T05:25:15.825Z,8.20
2019-03-01T05:27:44.747Z,8.20
2019-03-01T05:30:14.745Z,8.20
2019-03-01T05:32:43.594Z,8.20
2019-03-01T05:35:13.025Z,8.20
2019-03-01T05:37:41.979Z,8.30
2019-03-01T05:40:11.749Z,8.30
2019-03-01T05:42:40.587Z,8.20
2019-03-01T05:45:12.749Z,8.30
2019-03-01T05:47:41.752Z,8.30
2019-03-01T05:50:11.505Z,8.30
2019-03-01T05:52:40.817Z,8.30
2019-03-01T05:55:09.861Z,8.10
2019-03-01T05:58:16.683Z,8.20
2019-03-01T06:00:45.876Z,8.20
2019-03-01T06:04:10.844Z,8.20
2019-03-01T06:07:06.242Z,8.20
2019-03-01T06:10:00.271Z,8.20
2019-03-01T06:12:50.146Z,8.30
2019-03-01T06:15:29.247Z,8.20
2019-03-01T06:18:09.697Z,8.20
2019-03-01T06:21:15.664Z,8.10
2019-03-01T06:24:22.665Z,8.10
2019-03-01T06:27:41.758Z,8.10
2019-03-01T06:30:51.572Z,8.10
2019-03-01T06:33:54.477Z,8.10
2019-03-01T06:36:30.382Z,8.10
2019-03-01T06:40:03.439Z,8.10
2019-03-01T06:43:13.783Z,8.10
2019-03-01T06:46:13.419Z,8.10
2019-03-01T06:48:52.552Z,8.10
2019-03-01T06:51:30.072Z,8.10
2019-03-01T06:53:59.085Z,8.10
2019-03-01T06:56:28.078Z,8.10
2019-03-01T06:58:59.397Z,8.10
2019-03-01T07:01:44.651Z,8.10
2019-03-01T07:04:19.980Z,8.10
2019-03-01T07:06:48.982Z,8.10
2019-03-01T07:09:17.986Z,8.10
2019-03-01T07:11:46.938Z,8.10
2019-03-01T07:14:15.958Z,8.10
2019-03-01T07:16:44.939Z,8.00
2019-03-01T07:19:13.895Z,8.00
2019-03-01T07:21:42.811Z,7.90
2019-03-01T07:24:11.825Z,7.90
2019-03-01T07:26:40.778Z,7.70
2019-03-01T07:29:09.606Z,7.60
2019-03-01T07:31:38.588Z,7.50
2019-03-01T07:34:07.534Z,7.40
2019-03-01T07:36:36.529Z,7.30
2019-03-01T07:39:08.354Z,7.30
2019-03-01T07:41:37.284Z,7.30
2019-03-01T07:44:06.308Z,7.20
2019-03-01T07:46:35.299Z,7.10
2019-03-01T07:49:05.003Z,7.10
2019-03-01T07:51:35.926Z,7.10
2019-03-01T07:54:04.777Z,7.10
2019-03-01T07:56:37.010Z,7.20
2019-03-01T07:59:04.509Z,7.10
2019-03-01T08:01:33.430Z,7.20
2019-03-01T08:04:02.368Z,7.10
2019-03-01T08:06:31.205Z,7.10
2019-03-01T08:09:00.065Z,7.10
2019-03-01T08:11:31.816Z,7.10
2019-03-01T08:13:59.771Z,7.00
2019-03-01T08:16:28.776Z,7.00
2019-03-01T08:18:57.759Z,7.00
2019-03-01T08:21:26.796Z,7.10
2019-03-01T08:23:55.774Z,7.10
2019-03-01T08:26:24.758Z,7.00
2019-03-01T08:28:54.750Z,7.00
2019-03-01T08:31:24.385Z,6.90
2019-03-01T08:33:53.345Z,7.00
2019-03-01T08:36:22.306Z,7.00
2019-03-01T08:38:51.248Z,7.00
2019-03-01T08:41:21.492Z,7.00
2019-03-01T08:43:52.093Z,7.00
2019-03-01T08:46:21.020Z,7.00
2019-03-01T08:48:49.903Z,7.10
2019-03-01T08:51:18.890Z,7.10
2019-03-01T08:53:48.286Z,7.20
2019-03-01T08:56:25.860Z,7.10
2019-03-01T08:58:49.103Z,7.20
2019-03-01T09:01:18.317Z,7.10
2019-03-01T09:03:51.642Z,7.20
2019-03-01T09:06:20.487Z,7.20
2019-03-01T09:08:49.452Z,7.20
2019-03-01T09:11:18.324Z,7.20
2019-03-01T09:13:47.227Z,7.20
2019-03-01T09:16:16.165Z,7.30
2019-03-01T09:18:46.675Z,7.30
2019-03-01T09:21:15.801Z,7.30
2019-03-01T09:23:47.973Z,7.20
2019-03-01T09:26:16.615Z,7.20
2019-03-01T09:28:46.101Z,7.20
2019-03-01T09:31:15.109Z,7.20
2019-03-01T09:33:44.163Z,7.20
2019-03-01T09:36:34.817Z,7.30
2019-03-01T09:39:05.560Z,7.30
2019-03-01T09:41:36.525Z,7.40
2019-03-01T09:44:06.196Z,7.40
2019-03-01T09:46:35.103Z,7.40
2019-03-01T09:49:03.929Z,7.50
2019-03-01T09:51:32.871Z,7.50
2019-03-01T09:54:01.847Z,7.40
2019-03-01T09:56:30.669Z,7.40
2019-03-01T09:58:59.611Z,7.50
2019-03-01T10:01:28.596Z,7.60
2019-03-01T10:03:57.793Z,7.60
2019-03-01T10:06:26.664Z,7.60
2019-03-01T10:08:55.513Z,7.60
2019-03-01T10:11:24.417Z,7.60
2019-03-01T10:13:53.665Z,7.60
2019-03-01T10:16:23.005Z,7.70
2019-03-01T10:18:51.919Z,7.80
2019-03-01T10:21:20.891Z,7.80
2019-03-01T10:23:49.860Z,7.80
2019-03-01T10:26:18.913Z,7.70
2019-03-01T10:28:47.808Z,7.70
2019-03-01T10:31:16.827Z,7.70
2019-03-01T10:33:45.740Z,7.70
2019-03-01T10:36:14.712Z,7.80
2019-03-01T10:38:43.641Z,7.60
2019-03-01T10:41:12.791Z,7.60
2019-03-01T10:43:41.727Z,7.60
2019-03-01T10:46:10.711Z,7.60
2019-03-01T10:48:39.680Z,7.70
2019-03-01T10:51:08.562Z,7.80
2019-03-01T10:53:39.967Z,8.10
2019-03-01T10:56:08.873Z,8.20
2019-03-01T10:58:37.870Z,8.20
2019-03-01T11:01:06.896Z,8.20
2019-03-01T11:03:35.790Z,8.30
2019-03-01T11:06:04.811Z,8.40
2019-03-01T11:08:33.661Z,8.50
2019-03-01T11:11:02.781Z,8.40
2019-03-01T11:13:31.640Z,8.50
2019-03-01T11:16:00.575Z,8.30
2019-03-01T11:18:29.670Z,8.20
2019-03-01T11:20:58.670Z,8.10
2019-03-01T11:23:27.588Z,8.30
2019-03-01T11:25:56.494Z,8.40
2019-03-01T11:28:25.600Z,8.60
2019-03-01T11:30:54.708Z,8.70
2019-03-01T11:33:23.819Z,8.80
2019-03-01T11:35:52.849Z,8.70
2019-03-01T11:38:21.901Z,8.70
2019-03-01T11:40:50.934Z,8.70
2019-03-01T11:43:19.978Z,8.50
2019-03-01T11:45:48.993Z,8.30
2019-03-01T11:48:18.637Z,8.10
2019-03-01T11:50:47.758Z,7.90
2019-03-01T11:53:17.598Z,8.00
2019-03-01T11:55:47.423Z,7.90
2019-03-01T11:58:17.199Z,8.00
2019-03-01T12:00:52.011Z,8.10
2019-03-01T12:03:17.236Z,8.30
2019-03-01T12:05:46.538Z,8.50
2019-03-01T12:08:15.540Z,8.60
2019-03-01T12:10:44.743Z,8.50
2019-03-01T12:13:13.869Z,8.40
2019-03-01T12:15:42.966Z,8.40
2019-03-01T12:18:24.593Z,8.40
2019-03-01T12:20:53.707Z,8.20
2019-03-01T12:23:22.637Z,8.10
2019-03-01T12:25:51.649Z,8.00
2019-03-01T12:28:24.801Z,8.00
2019-03-01T12:30:55.637Z,8.00
2019-03-01T12:33:26.927Z,8.10
2019-03-01T12:35:55.963Z,8.00
2019-03-01T12:38:28.057Z,8.10
2019-03-01T12:41:01.852Z,8.10
2019-03-01T12:43:30.845Z,8.20
2019-03-01T12:45:59.871Z,8.20
2019-03-01T12:48:29.193Z,8.20
2019-03-01T12:50:58.345Z,8.20
2019-03-01T12:53:27.277Z,8.30
2019-03-01T12:55:56.282Z,8.40
2019-03-01T12:58:25.413Z,8.50
2019-03-01T13:00:54.496Z,8.50
2019-03-01T13:03:23.320Z,8.60
2019-03-01T13:05:52.205Z,8.70
2019-03-01T13:08:22.686Z,8.70
2019-03-01T13:10:51.690Z,8.70
2019-03-01T13:13:22.390Z,8.70
2019-03-01T13:15:52.363Z,8.60
2019-03-01T13:18:21.415Z,8.60
2019-03-01T13:20:52.940Z,8.60
2019-03-01T13:23:21.960Z,8.70
2019-03-01T13:25:51.091Z,8.70
2019-03-01T13:28:20.168Z,8.70
2019-03-01T13:30:49.084Z,8.80
2019-03-01T13:33:18.033Z,8.70
2019-03-01T13:35:47.047Z,8.70
2019-03-01T13:38:15.979Z,8.80
2019-03-01T13:40:45.030Z,8.80
2019-03-01T13:43:13.974Z,8.60
2019-03-01T13:45:42.810Z,8.60
2019-03-01T13:48:11.736Z,8.50
2019-03-01T13:50:41.602Z,8.60
2019-03-01T13:53:11.474Z,8.50
2019-03-01T13:55:40.450Z,8.60
2019-03-01T13:58:09.451Z,8.60
2019-03-01T14:00:38.437Z,8.60
2019-03-01T14:03:07.449Z,8.60
2019-03-01T14:05:36.381Z,8.70
2019-03-01T14:08:08.916Z,8.60
2019-03-01T14:10:38.461Z,8.50
2019-03-01T14:13:06.900Z,8.30
2019-03-01T14:15:38.445Z,8.30
2019-03-01T14:18:06.544Z,8.20
2019-03-01T14:20:35.585Z,8.10
2019-03-01T14:23:04.579Z,8.10
2019-03-01T14:25:33.553Z,8.10
2019-03-01T14:28:05.182Z,8.20
2019-03-01T14:30:33.515Z,8.30
2019-03-01T14:33:02.631Z,8.30
2019-03-01T14:35:31.620Z,8.30
2019-03-01T14:38:00.554Z,8.40
2019-03-01T14:40:29.609Z,8.50
2019-03-01T14:42:58.631Z,8.50
2019-03-01T14:45:27.641Z,8.50
2019-03-01T14:47:56.748Z,8.50
2019-03-01T14:50:25.874Z,8.50
2019-03-01T14:52:58.466Z,8.50
2019-03-01T14:55:32.041Z,8.60
2019-03-01T14:58:07.935Z,8.60
2019-03-01T15:00:50.951Z,8.50
2019-03-01T15:03:37.404Z,8.40
2019-03-01T15:06:07.880Z,8.40
2019-03-01T15:08:40.514Z,8.30
2019-03-01T15:11:16.802Z,8.30
2019-03-01T15:13:46.958Z,8.20
2019-03-01T15:16:15.971Z,8.10
2019-03-01T15:18:45.000Z,8.10
2019-03-01T15:21:14.178Z,8.10
2019-03-01T15:23:43.169Z,8.10
2019-03-01T15:26:12.177Z,8.00
2019-03-01T15:28:55.898Z,7.90
2019-03-01T15:31:24.997Z,7.90
2019-03-01T15:33:54.004Z,7.80
2019-03-01T15:36:22.992Z,7.80
2019-03-01T15:38:52.000Z,7.80
2019-03-01T15:41:21.033Z,7.80
2019-03-01T15:43:49.961Z,7.70
2019-03-01T15:46:18.958Z,7.70
2019-03-01T15:48:47.881Z,7.70
2019-03-01T15:51:16.900Z,7.70
2019-03-01T15:53:46.035Z,7.80
2019-03-01T15:56:14.983Z,7.80
2019-03-01T15:58:43.968Z,7.80
2019-03-01T16:01:13.012Z,7.90
2019-03-01T16:03:42.812Z,7.90
2019-03-01T16:06:17.243Z,7.90
2019-03-01T16:08:43.828Z,8.00
2019-03-01T16:11:13.664Z,8.10
2019-03-01T16:13:48.017Z,8.10
2019-03-01T16:16:13.767Z,8.10
2019-03-01T16:18:43.506Z,8.00
2019-03-01T16:21:12.445Z,7.90
2019-03-01T16:23:41.462Z,7.90
2019-03-01T16:26:10.531Z,8.00
2019-03-01T16:28:39.557Z,7.90
2019-03-01T16:31:08.441Z,7.80
2019-03-01T16:33:37.428Z,7.80
2019-03-01T16:36:12.025Z,7.70
2019-03-01T16:38:41.394Z,7.80
2019-03-01T16:41:11.702Z,7.80
2019-03-01T16:43:40.763Z,7.80
2019-03-01T16:46:09.765Z,7.90
2019-03-01T16:48:38.697Z,7.90
2019-03-01T16:51:07.722Z,7.90
2019-03-01T16:53:40.213Z,7.90
2019-03-01T16:56:07.266Z,7.90
2019-03-01T16:58:36.375Z,7.80
2019-03-01T17:01:05.293Z,7.90
2019-03-01T17:03:34.413Z,7.90
2019-03-01T17:06:03.451Z,7.90
2019-03-01T17:08:32.268Z,7.90
2019-03-01T17:11:02.522Z,7.90
2019-03-01T17:13:31.967Z,7.90
2019-03-01T17:16:01.070Z,7.90
2019-03-01T17:18:29.911Z,7.90
2019-03-01T17:20:58.943Z,7.90
2019-03-01T17:23:27.956Z,7.90
2019-03-01T17:25:57.642Z,7.80
2019-03-01T17:28:26.798Z,7.80
2019-03-01T17:30:58.125Z,7.70
2019-03-01T17:33:27.042Z,7.70
2019-03-01T17:35:56.000Z,7.70
2019-03-01T17:38:25.213Z,7.70
2019-03-01T17:40:54.164Z,7.70
2019-03-01T17:43:23.137Z,7.80
2019-03-01T17:45:54.417Z,7.80
2019-03-01T17:48:22.748Z,7.80
2019-03-01T17:50:51.855Z,7.80
2019-03-01T17:53:20.725Z,7.80
2019-03-01T17:55:49.681Z,7.80
2019-03-01T17:58:18.570Z,7.80
2019-03-01T18:00:47.816Z,7.70
2019-03-01T18:03:16.778Z,7.70
2019-03-01T18:05:45.716Z,7.70
2019-03-01T18:08:14.720Z,7.70
2019-03-01T18:10:43.798Z,7.60
2019-03-01T18:13:12.727Z,7.50
2019-03-01T18:15:45.136Z,7.40
2019-03-01T18:18:12.994Z,7.40
2019-03-01T18:20:42.597Z,7.40
2019-03-01T18:23:11.579Z,7.40
2019-03-01T18:25:40.498Z,7.40
2019-03-01T18:28:09.697Z,7.40
2019-03-01T18:30:39.107Z,7.40
2019-03-01T18:33:07.957Z,7.40
2019-03-01T18:35:37.046Z,7.40
2019-03-01T18:38:05.970Z,7.40
2019-03-01T18:40:35.170Z,7.40
2019-03-01T18:43:04.116Z,7.40
2019-03-01T18:45:33.140Z,7.50
2019-03-01T18:48:05.075Z,7.40
2019-03-01T18:50:33.130Z,7.40
2019-03-01T18:53:03.899Z,7.40
2019-03-01T18:55:33.164Z,7.30
2019-03-01T18:58:02.431Z,7.40
2019-03-01T19:00:35.831Z,7.40
2019-03-01T19:03:05.501Z,7.40
2019-03-01T19:05:36.750Z,7.40
2019-03-01T19:08:06.103Z,7.40
2019-03-01T19:10:35.555Z,7.40
2019-03-01T19:13:04.670Z,7.40
2019-03-01T19:15:33.789Z,7.40
2019-03-01T19:18:02.766Z,7.40
2019-03-01T19:20:32.151Z,7.40
2019-03-01T19:23:01.213Z,7.40
2019-03-01T19:25:30.299Z,7.40
2019-03-01T19:27:59.311Z,7.40
2019-03-01T19:30:28.349Z,7.40
2019-03-01T19:32:58.970Z,7.40
2019-03-01T19:35:29.754Z,7.40
2019-03-01T19:37:58.974Z,7.40
2019-03-01T19:40:28.074Z,7.40
2019-03-01T19:42:57.490Z,7.40
2019-03-01T19:45:26.606Z,7.40
2019-03-01T19:48:01.319Z,7.40
2019-03-01T19:50:26.361Z,7.40
2019-03-01T19:52:55.383Z,7.40
2019-03-01T19:55:24.609Z,7.40
2019-03-01T19:57:53.643Z,7.40
2019-03-01T20:00:23.313Z,7.40
2019-03-01T20:02:52.277Z,7.30
2019-03-01T20:05:23.125Z,7.40
2019-03-01T20:07:54.671Z,7.40
2019-03-01T20:10:22.923Z,7.40
2019-03-01T20:12:52.031Z,7.40
2019-03-01T20:15:22.133Z,7.40
2019-03-01T20:17:51.164Z,7.40
2019-03-01T20:20:20.654Z,7.40
2019-03-01T20:22:50.538Z,7.40
2019-03-01T20:25:20.422Z,7.40
2019-03-01T20:27:49.416Z,7.40
2019-03-01T20:30:20.198Z,7.40
2019-03-01T20:32:51.205Z,7.40
2019-03-01T20:35:20.208Z,7.40
2019-03-01T20:37:49.239Z,7.40
2019-03-01T20:40:18.251Z,7.40
2019-03-01T20:42:47.271Z,7.40
2019-03-01T20:45:22.109Z,7.40
2019-03-01T20:47:53.562Z,7.40
2019-03-01T20:50:21.780Z,7.40
2019-03-01T20:52:50.676Z,7.40
2019-03-01T20:55:24.114Z,7.40
2019-03-01T20:57:53.857Z,7.40
2019-03-01T21:00:26.057Z,7.40
2019-03-01T21:02:53.717Z,7.40
2019-03-01T21:05:24.899Z,7.30
2019-03-01T21:07:53.962Z,7.30
2019-03-01T21:10:23.810Z,7.30
2019-03-01T21:12:52.813Z,7.30
2019-03-01T21:15:22.170Z,7.30
2019-03-01T21:17:53.096Z,7.30
2019-03-01T21:20:22.305Z,7.30
2019-03-01T21:22:51.298Z,7.30
2019-03-01T21:25:20.329Z,7.30
2019-03-01T21:27:49.355Z,7.30
2019-03-01T21:30:24.019Z,7.30
2019-03-01T21:32:51.808Z,7.30
2019-03-01T21:35:20.897Z,7.30
2019-03-01T21:37:49.951Z,7.30
2019-03-01T21:40:18.966Z,7.30
2019-03-01T21:42:48.060Z,7.30
2019-03-01T21:45:17.884Z,7.30
2019-03-01T21:47:49.010Z,7.30
2019-03-01T21:50:18.138Z,7.30
2019-03-01T21:52:47.140Z,7.30
2019-03-01T21:55:17.336Z,7.30
2019-03-01T21:57:46.290Z,7.30
2019-03-01T22:00:17.466Z,7.30
2019-03-01T22:02:48.912Z,7.20
2019-03-01T22:05:17.356Z,7.20
2019-03-01T22:07:46.444Z,7.20
2019-03-01T22:10:15.632Z,7.20
2019-03-01T22:12:44.800Z,7.10
2019-03-01T22:15:21.633Z,7.10
2019-03-01T22:17:49.640Z,7.20
2019-03-01T22:20:18.685Z,7.10
2019-03-01T22:22:47.665Z,7.10
2019-03-01T22:25:16.837Z,7.10
2019-03-01T22:27:46.429Z,7.10
2019-03-01T22:30:19.712Z,7.10
2019-03-01T22:32:48.708Z,7.00
2019-03-01T22:35:17.683Z,6.90
2019-03-01T22:37:47.091Z,6.90
2019-03-01T22:40:16.252Z,6.80
2019-03-01T22:42:45.674Z,6.80
2019-03-01T22:45:16.157Z,6.80
2019-03-01T22:47:45.066Z,6.70
2019-03-01T22:50:18.768Z,6.70
2019-03-01T22:52:50.677Z,6.70
2019-03-01T22:55:21.371Z,6.60
2019-03-01T22:57:50.408Z,6.60
2019-03-01T23:01:22.512Z,6.50
2019-03-01T23:04:03.957Z,6.50
2019-03-01T23:06:34.790Z,6.40
2019-03-01T23:09:10.362Z,6.40
2019-03-01T23:11:39.786Z,6.40
2019-03-01T23:14:08.763Z,6.30
2019-03-01T23:16:37.728Z,6.30
2019-03-01T23:19:06.760Z,6.20
2019-03-01T23:21:37.465Z,6.20
2019-03-01T23:24:06.452Z,6.20
2019-03-01T23:26:35.454Z,6.10
2019-03-01T23:29:04.412Z,6.10
2019-03-01T23:31:35.738Z,6.00
2019-03-01T23:34:06.965Z,6.00
2019-03-01T23:36:34.528Z,6.00
2019-03-01T23:39:04.397Z,6.00
2019-03-01T23:41:33.331Z,6.00
2019-03-01T23:44:02.793Z,6.00
2019-03-01T23:46:32.733Z,6.00
2019-03-01T23:49:06.221Z,6.10
2019-03-01T23:51:32.287Z,6.10
2019-03-01T23:54:01.205Z,6.20
2019-03-01T23:56:30.638Z,6.20
2019-03-01T23:58:59.607Z,6.20
